Time,TemperatureF,DewpointF,PressureIn,WindDirection,WindDirectionDegrees,WindSpeedMPH,WindSpeedGustMPH,Humidity,HourlyPrecipIn,Conditions,Clouds,dailyrainin,SolarRadiationWatts/m^2,SoftwareType,DateUTC
2013-03-09 00:05:00,48.8,43.5,30.08,NW,324,2.0,3.0,82,0.00,,,0.00,0,Wunderground v.1.15,2013-03-09 08:05:00,
2013-03-09 00:15:00,48.7,43.5,30.08,NW,324,2.0,2.0,82,0.00,,,0.00,0,Wunderground v.1.15,2013-03-09 08:15:00,
2013-03-09 00:20:00,48.6,43.4,30.08,NW,324,2.0,3.0,82,0.00,,,0.00,0,Wunderground v.1.15,2013-03-09 08:20:00,
2013-03-09 00:29:00,48.6,43.4,30.09,NW,324,2.0,2.0,82,0.00,,,0.00,0,Wunderground v.1.15,2013-03-09 08:29:00,
2013-03-09 00:34:00,48.6,43.4,30.09,NW,324,2.0,2.0,82,0.00,,,0.00,0,Wunderground v.1.15,2013-03-09 08:34:00,
2013-03-09 00:40:00,48.6,43.0,30.10,NW,320,3.0,3.0,81,0.00,,,0.00,0,Wunderground v.1.15,2013-03-09 08:40:00,
2013-03-09 00:49:00,48.6,43.4,30.10,NW,325,5.0,5.0,82,0.00,,,0.00,0,Wunderground v.1.15,2013-03-09 08:49:00,
2013-03-09 00:55:00,48.5,43.3,30.10,NNW,332,5.0,5.0,82,0.00,,,0.00,0,Wunderground v.1.15,2013-03-09 08:55:00,
2013-03-09 01:05:00,48.5,43.3,30.11,NW,325,4.0,5.0,82,0.00,,,0.00,0,Wunderground v.1.15,2013-03-09 09:05:00,
2013-03-09 01:14:00,48.5,43.3,30.11,NW,315,4.0,7.0,82,0.00,,,0.00,0,Wunderground v.1.15,2013-03-09 09:14:00,
2013-03-09 01:20:00,48.7,43.1,30.11,NW,312,5.0,7.0,81,0.00,,,0.00,0,Wunderground v.1.15,2013-03-09 09:20:00,
2013-03-09 01:29:00,48.7,43.1,30.12,NW,309,6.0,8.0,81,0.00,,,0.00,0,Wunderground v.1.15,2013-03-09 09:29:00,
2013-03-09 01:34:00,48.8,43.2,30.12,WNW,303,7.0,8.0,81,0.00,,,0.00,0,Wunderground v.1.15,2013-03-09 09:34:00,
2013-03-09 01:40:00,48.8,43.2,30.12,NW,308,6.0,7.0,81,0.00,,,0.00,0,Wunderground v.1.15,2013-03-09 09:40:00,
2013-03-09 01:49:00,48.7,43.1,30.12,WNW,303,7.0,8.0,81,0.00,,,0.00,0,Wunderground v.1.15,2013-03-09 09:49:00,
2013-03-09 01:59:00,48.6,43.0,30.12,NW,313,6.0,6.0,81,0.00,,,0.00,0,Wunderground v.1.15,2013-03-09 09:59:00,
2013-03-09 02:10:00,48.4,43.2,30.12,NW,317,5.0,5.0,82,0.00,,,0.00,0,Wunderground v.1.15,2013-03-09 10:10:00,
2013-03-09 02:19:00,48.1,42.9,30.12,NW,326,4.0,4.0,82,0.00,,,0.00,0,Wunderground v.1.15,2013-03-09 10:19:00,
2013-03-09 02:25:00,47.9,42.7,30.12,NW,324,2.0,4.0,82,0.00,,,0.00,0,Wunderground v.1.15,2013-03-09 10:25:00,
2013-03-09 02:34:00,47.6,42.4,30.12,NW,324,2.0,2.0,82,0.00,,,0.00,0,Wunderground v.1.15,2013-03-09 10:34:00,
2013-03-09 02:39:00,47.4,42.5,30.12,NW,324,1.0,1.0,83,0.00,,,0.00,0,Wunderground v.1.15,2013-03-09 10:39:00,
2013-03-09 02:45:00,47.3,42.4,30.12,NW,324,1.0,1.0,83,0.00,,,0.00,0,Wunderground v.1.15,2013-03-09 10:45:00,
2013-03-09 02:54:00,47.0,42.1,30.12,NW,322,0.0,1.0,83,0.00,,,0.00,0,Wunderground v.1.15,2013-03-09 10:54:00,
2013-03-09 03:00:00,46.8,41.9,30.12,NW,324,0.0,0.0,83,0.00,,,0.00,0,Wunderground v.1.15,2013-03-09 11:00:00,
2013-03-09 03:09:00,46.3,41.4,30.12,NW,325,0.0,0.0,83,0.00,,,0.00,0,Wunderground v.1.15,2013-03-09 11:09:00,
2013-03-09 03:15:00,46.0,41.4,30.12,NW,325,0.0,0.0,84,0.00,,,0.00,0,Wunderground v.1.15,2013-03-09 11:15:00,
2013-03-09 03:24:00,45.6,41.0,30.12,NW,324,0.0,0.0,84,0.00,,,0.00,0,Wunderground v.1.15,2013-03-09 11:24:00,
2013-03-09 03:29:00,45.3,41.1,30.13,NW,324,0.0,0.0,85,0.00,,,0.00,0,Wunderground v.1.15,2013-03-09 11:29:00,
2013-03-09 03:35:00,45.3,41.4,30.13,NW,324,0.0,0.0,86,0.00,,,0.00,0,Wunderground v.1.15,2013-03-09 11:35:00,
2013-03-09 03:44:00,45.0,41.1,30.13,NW,324,0.0,0.0,86,0.00,,,0.00,0,Wunderground v.1.15,2013-03-09 11:44:00,
2013-03-09 03:50:00,44.8,40.9,30.13,NW,323,0.0,0.0,86,0.00,,,0.00,0,Wunderground v.1.15,2013-03-09 11:50:00,
2013-03-09 03:59:00,44.3,40.4,30.14,NW,325,0.0,0.0,86,0.00,,,0.00,0,Wunderground v.1.15,2013-03-09 11:59:00,
2013-03-09 04:05:00,44.1,40.5,30.15,NW,326,0.0,0.0,87,0.00,,,0.00,0,Wunderground v.1.15,2013-03-09 12:05:00,
2013-03-09 04:14:00,43.8,40.2,30.16,NW,324,0.0,0.0,87,0.00,,,0.00,0,Wunderground v.1.15,2013-03-09 12:14:00,
2013-03-09 04:20:00,43.9,40.6,30.16,NW,324,0.0,0.0,88,0.00,,,0.00,0,Wunderground v.1.15,2013-03-09 12:20:00,
2013-03-09 04:29:00,43.6,40.3,30.17,NW,324,0.0,0.0,88,0.00,,,0.00,0,Wunderground v.1.15,2013-03-09 12:29:00,
2013-03-09 04:35:00,43.5,40.2,30.17,NW,324,0.0,0.0,88,0.00,,,0.00,0,Wunderground v.1.15,2013-03-09 12:35:00,
2013-03-09 04:44:00,43.5,40.5,30.18,NW,324,0.0,0.0,89,0.00,,,0.00,0,Wunderground v.1.15,2013-03-09 12:44:00,
2013-03-09 04:54:00,43.2,40.2,30.18,NW,324,0.0,0.0,89,0.00,,,0.00,0,Wunderground v.1.15,2013-03-09 12:54:00,
2013-03-09 05:00:00,43.0,40.0,30.19,NW,324,0.0,0.0,89,0.00,,,0.00,0,Wunderground v.1.15,2013-03-09 13:00:00,
2013-03-09 05:10:00,42.7,39.7,30.20,NW,324,0.0,0.0,89,0.00,,,0.00,0,Wunderground v.1.15,2013-03-09 13:10:00,
2013-03-09 05:19:00,42.6,39.9,30.20,NW,323,0.0,0.0,90,0.00,,,0.00,0,Wunderground v.1.15,2013-03-09 13:19:00,
2013-03-09 05:24:00,42.5,39.5,30.20,NW,323,0.0,0.0,89,0.00,,,0.00,0,Wunderground v.1.15,2013-03-09 13:24:00,
2013-03-09 05:30:00,42.5,39.5,30.21,NW,324,0.0,0.0,89,0.00,,,0.00,0,Wunderground v.1.15,2013-03-09 13:30:00,
2013-03-09 05:39:00,42.2,39.5,30.21,NW,322,0.0,0.0,90,0.00,,,0.00,0,Wunderground v.1.15,2013-03-09 13:39:00,
2013-03-09 05:49:00,42.0,39.3,30.22,NW,322,0.0,0.0,90,0.00,,,0.00,0,Wunderground v.1.15,2013-03-09 13:49:00,
2013-03-09 05:55:00,42.0,39.3,30.22,NW,326,0.0,0.0,90,0.00,,,0.00,0,Wunderground v.1.15,2013-03-09 13:55:00,
2013-03-09 06:05:00,41.8,39.1,30.23,NW,323,1.0,1.0,90,0.00,,,0.00,0,Wunderground v.1.15,2013-03-09 14:05:00,
2013-03-09 06:10:00,41.8,39.1,30.23,NW,324,0.0,0.0,90,0.00,,,0.00,0,Wunderground v.1.15,2013-03-09 14:10:00,
2013-03-09 06:20:00,41.8,39.1,30.23,NW,313,0.0,0.0,90,0.00,,,0.00,0,Wunderground v.1.15,2013-03-09 14:20:00,
2013-03-09 06:30:00,41.5,38.8,30.24,NW,318,0.0,1.0,90,0.00,,,0.00,0,Wunderground v.1.15,2013-03-09 14:30:00,
2013-03-09 06:39:00,41.4,38.7,30.24,NW,318,0.0,0.0,90,0.00,,,0.00,11,Wunderground v.1.15,2013-03-09 14:39:00,
2013-03-09 06:45:00,41.6,39.2,30.24,NW,326,0.0,0.0,91,0.00,,,0.00,14,Wunderground v.1.15,2013-03-09 14:45:00,
2013-03-09 06:54:00,42.0,39.6,30.25,NW,321,0.0,0.0,91,0.00,,,0.00,19,Wunderground v.1.15,2013-03-09 14:54:00,
2013-03-09 07:04:00,43.1,40.9,30.25,NNW,328,0.0,0.0,92,0.00,,,0.00,35,Wunderground v.1.15,2013-03-09 15:04:00,
2013-03-09 07:10:00,43.8,41.6,30.25,NW,324,0.0,0.0,92,0.00,,,0.00,46,Wunderground v.1.15,2013-03-09 15:10:00,
2013-03-09 07:19:00,45.3,42.8,30.25,NNW,329,0.0,0.0,91,0.00,,,0.00,74,Wunderground v.1.15,2013-03-09 15:19:00,
2013-03-09 07:25:00,46.2,43.4,30.26,SSW,213,0.0,2.0,90,0.00,,,0.00,88,Wunderground v.1.15,2013-03-09 15:25:00,
2013-03-09 07:34:00,48.2,44.8,30.26,NW,322,1.0,1.0,88,0.00,,,0.00,121,Wunderground v.1.15,2013-03-09 15:34:00,
2013-03-09 07:40:00,49.4,45.7,30.26,NW,320,1.0,1.0,87,0.00,,,0.00,139,Wunderground v.1.15,2013-03-09 15:40:00,
2013-03-09 07:50:00,51.5,46.5,30.26,SSW,213,0.0,0.0,83,0.00,,,0.00,171,Wunderground v.1.15,2013-03-09 15:50:00,
2013-03-09 07:59:00,53.3,47.0,30.27,NW,324,2.0,2.0,79,0.00,,,0.00,206,Wunderground v.1.15,2013-03-09 15:59:00,
2013-03-09 08:04:00,54.1,46.7,30.27,NW,320,3.0,3.0,76,0.00,,,0.00,221,Wunderground v.1.15,2013-03-09 16:04:00,
2013-03-09 08:14:00,55.1,46.6,30.27,SSW,213,3.0,7.0,73,0.00,,,0.00,253,Wunderground v.1.15,2013-03-09 16:14:00,
2013-03-09 08:20:00,55.1,45.9,30.28,SSW,213,4.0,4.0,71,0.00,,,0.00,271,Wunderground v.1.15,2013-03-09 16:20:00,
2013-03-09 08:29:00,54.7,45.5,30.28,SSW,213,5.0,5.0,71,0.00,,,0.00,304,Wunderground v.1.15,2013-03-09 16:29:00,
2013-03-09 08:35:00,54.7,45.5,30.28,NNE,31,5.0,8.0,71,0.00,,,0.00,322,Wunderground v.1.15,2013-03-09 16:35:00,
2013-03-09 08:44:00,54.8,44.8,30.28,NNE,33,6.0,6.0,69,0.00,,,0.00,355,Wunderground v.1.15,2013-03-09 16:44:00,
2013-03-09 08:50:00,55.1,45.1,30.28,SSW,213,6.0,6.0,69,0.00,,,0.00,371,Wunderground v.1.15,2013-03-09 16:50:00,
2013-03-09 09:00:00,55.4,43.4,30.28,NNE,12,6.0,6.0,64,0.00,,,0.00,401,Wunderground v.1.15,2013-03-09 17:00:00,
2013-03-09 09:09:00,55.5,43.1,30.29,SSW,213,6.0,6.0,63,0.00,,,0.00,432,Wunderground v.1.15,2013-03-09 17:09:00,
2013-03-09 09:14:00,55.7,42.9,30.29,North,9,7.0,11.0,62,0.00,,,0.00,450,Wunderground v.1.15,2013-03-09 17:14:00,
2013-03-09 09:20:00,55.7,42.5,30.29,NE,37,8.0,8.0,61,0.00,,,0.00,466,Wunderground v.1.15,2013-03-09 17:20:00,
2013-03-09 09:29:00,56.4,42.7,30.29,North,9,6.0,6.0,60,0.00,,,0.00,494,Wunderground v.1.15,2013-03-09 17:29:00,
2013-03-09 09:35:00,57.0,42.4,30.30,NE,37,5.0,6.0,58,0.00,,,0.00,508,Wunderground v.1.15,2013-03-09 17:35:00,
2013-03-09 09:44:00,58.0,42.8,30.30,SSW,213,5.0,5.0,57,0.00,,,0.00,536,Wunderground v.1.15,2013-03-09 17:44:00,
2013-03-09 09:50:00,58.4,43.2,30.30,SSW,213,5.0,5.0,57,0.00,,,0.00,550,Wunderground v.1.15,2013-03-09 17:50:00,
2013-03-09 10:00:00,58.6,43.4,30.29,North,1,5.0,5.0,57,0.00,,,0.00,577,Wunderground v.1.15,2013-03-09 18:00:00,
2013-03-09 10:09:00,59.4,44.2,30.29,NE,35,4.0,7.0,57,0.00,,,0.00,603,Wunderground v.1.15,2013-03-09 18:09:00,
2013-03-09 10:15:00,59.7,44.0,30.29,SSW,213,5.0,7.0,56,0.00,,,0.00,615,Wunderground v.1.15,2013-03-09 18:15:00,
2013-03-09 10:25:00,60.4,44.2,30.29,NNW,344,4.0,5.0,55,0.00,,,0.00,638,Wunderground v.1.15,2013-03-09 18:25:00,
2013-03-09 10:34:00,60.1,44.3,30.30,North,351,2.0,3.0,56,0.00,,,0.00,657,Wunderground v.1.15,2013-03-09 18:34:00,
2013-03-09 10:40:00,58.1,43.8,30.30,SSW,213,2.0,6.0,59,0.00,,,0.00,670,Wunderground v.1.15,2013-03-09 18:40:00,
2013-03-09 10:49:00,54.0,43.3,30.30,WSW,251,3.0,3.0,67,0.00,,,0.00,687,Wunderground v.1.15,2013-03-09 18:49:00,
2013-03-09 10:55:00,54.5,44.2,30.31,WSW,245,2.0,3.0,68,0.00,,,0.00,698,Wunderground v.1.15,2013-03-09 18:55:00,
2013-03-09 11:05:00,56.0,44.4,30.31,SW,218,2.0,6.0,65,0.00,,,0.00,717,Wunderground v.1.15,2013-03-09 19:05:00,
2013-03-09 11:14:00,55.4,44.6,30.31,SW,223,5.0,6.0,67,0.00,,,0.00,731,Wunderground v.1.15,2013-03-09 19:14:00,
2013-03-09 11:20:00,55.2,44.4,30.31,SW,228,5.0,6.0,67,0.00,,,0.00,740,Wunderground v.1.15,2013-03-09 19:20:00,
2013-03-09 11:29:00,55.2,44.4,30.31,SW,230,5.0,7.0,67,0.00,,,0.00,756,Wunderground v.1.15,2013-03-09 19:29:00,
2013-03-09 11:35:00,54.7,44.3,30.31,West,260,6.0,9.0,68,0.00,,,0.00,759,Wunderground v.1.15,2013-03-09 19:35:00,
2013-03-09 11:45:00,55.0,46.9,30.31,WSW,258,5.0,6.0,74,0.00,,,0.00,768,Wunderground v.1.15,2013-03-09 19:45:00,
2013-03-09 11:54:00,54.3,46.2,30.31,WSW,252,6.0,6.0,74,0.00,,,0.00,779,Wunderground v.1.15,2013-03-09 19:54:00,
2013-03-09 12:00:00,54.5,46.0,30.30,WSW,250,6.0,6.0,73,0.00,,,0.00,782,Wunderground v.1.15,2013-03-09 20:00:00,
2013-03-09 12:09:00,56.6,47.7,30.30,SSW,213,4.0,4.0,72,0.00,,,0.00,788,Wunderground v.1.15,2013-03-09 20:09:00,
2013-03-09 12:15:00,57.5,47.0,30.30,SW,232,3.0,4.0,68,0.00,,,0.00,793,Wunderground v.1.15,2013-03-09 20:15:00,
2013-03-09 12:24:00,58.3,47.0,30.30,WSW,239,4.0,4.0,66,0.00,,,0.00,793,Wunderground v.1.15,2013-03-09 20:24:00,
2013-03-09 12:34:00,57.2,46.7,30.30,SSW,213,6.0,6.0,68,0.00,,,0.00,795,Wunderground v.1.15,2013-03-09 20:34:00,
2013-03-09 12:40:00,57.5,47.8,30.29,SW,230,6.0,8.0,70,0.00,,,0.00,796,Wunderground v.1.15,2013-03-09 20:40:00,
2013-03-09 12:49:00,56.4,47.1,30.29,WSW,239,9.0,10.0,71,0.00,,,0.00,793,Wunderground v.1.15,2013-03-09 20:49:00,
2013-03-09 12:55:00,56.0,47.8,30.29,WSW,245,9.0,11.0,74,0.00,,,0.00,795,Wunderground v.1.15,2013-03-09 20:55:00,
2013-03-09 13:05:00,54.8,47.7,30.29,West,262,14.0,14.0,77,0.00,,,0.00,786,Wunderground v.1.15,2013-03-09 21:05:00,
2013-03-09 13:15:00,55.1,48.0,30.29,West,271,13.0,14.0,77,0.00,,,0.00,780,Wunderground v.1.15,2013-03-09 21:15:00,
2013-03-09 13:24:00,55.7,47.9,30.28,WSW,244,11.0,13.0,75,0.00,,,0.00,773,Wunderground v.1.15,2013-03-09 21:24:00,
2013-03-09 13:29:00,56.0,48.2,30.28,WSW,247,11.0,11.0,75,0.00,,,0.00,770,Wunderground v.1.15,2013-03-09 21:29:00,
2013-03-09 13:39:00,56.8,48.2,30.28,SSW,213,9.0,9.0,73,0.00,,,0.00,761,Wunderground v.1.15,2013-03-09 21:39:00,
2013-03-09 13:45:00,57.0,49.2,30.28,SSW,213,8.0,9.0,75,0.00,,,0.00,756,Wunderground v.1.15,2013-03-09 21:45:00,
2013-03-09 13:55:00,56.8,48.6,30.28,WSW,254,8.0,9.0,74,0.00,,,0.00,744,Wunderground v.1.15,2013-03-09 21:55:00,
2013-03-09 14:05:00,57.9,49.7,30.28,WSW,249,7.0,8.0,74,0.00,,,0.00,729,Wunderground v.1.15,2013-03-09 22:05:00,
2013-03-09 14:14:00,58.9,50.6,30.27,WSW,252,4.0,5.0,74,0.00,,,0.00,714,Wunderground v.1.15,2013-03-09 22:14:00,
2013-03-09 14:19:00,58.4,50.5,30.27,SW,235,5.0,5.0,75,0.00,,,0.00,705,Wunderground v.1.15,2013-03-09 22:19:00,
2013-03-09 14:29:00,58.3,51.1,30.27,SW,222,5.0,6.0,77,0.00,,,0.00,686,Wunderground v.1.15,2013-03-09 22:29:00,
2013-03-09 14:35:00,58.7,51.5,30.28,SW,232,5.0,6.0,77,0.00,,,0.00,677,Wunderground v.1.15,2013-03-09 22:35:00,
2013-03-09 14:44:00,58.6,51.1,30.28,SW,222,5.0,7.0,76,0.00,,,0.00,654,Wunderground v.1.15,2013-03-09 22:44:00,
2013-03-09 14:50:00,58.7,51.2,30.28,SW,218,5.0,5.0,76,0.00,,,0.00,643,Wunderground v.1.15,2013-03-09 22:50:00,
2013-03-09 14:59:00,59.0,51.8,30.28,SW,229,5.0,5.0,77,0.00,,,0.00,617,Wunderground v.1.15,2013-03-09 22:59:00,
2013-03-09 15:09:00,58.8,51.6,30.28,SW,226,5.0,6.0,77,0.00,,,0.00,596,Wunderground v.1.15,2013-03-09 23:09:00,
2013-03-09 15:15:00,58.7,51.9,30.27,WSW,240,5.0,6.0,78,0.00,,,0.00,584,Wunderground v.1.15,2013-03-09 23:15:00,
2013-03-09 15:25:00,58.7,51.5,30.27,SW,230,4.0,5.0,77,0.00,,,0.00,559,Wunderground v.1.15,2013-03-09 23:25:00,
2013-03-09 15:34:00,57.4,50.6,30.27,SW,228,5.0,6.0,78,0.00,,,0.00,529,Wunderground v.1.15,2013-03-09 23:34:00,
2013-03-09 15:40:00,57.6,51.1,30.27,SW,228,5.0,5.0,79,0.00,,,0.00,517,Wunderground v.1.15,2013-03-09 23:40:00,
2013-03-09 15:49:00,57.6,51.1,30.27,SW,218,3.0,3.0,79,0.00,,,0.00,485,Wunderground v.1.15,2013-03-09 23:49:00,
2013-03-09 15:59:00,57.1,51.0,30.27,SSW,213,2.0,3.0,80,0.00,,,0.00,452,Wunderground v.1.15,2013-03-09 23:59:00,
2013-03-09 16:05:00,57.0,51.2,30.27,SW,218,2.0,3.0,81,0.00,,,0.00,436,Wunderground v.1.15,2013-03-10 00:05:00,
2013-03-09 16:14:00,57.1,51.7,30.27,SW,218,3.0,4.0,82,0.00,,,0.00,408,Wunderground v.1.15,2013-03-10 00:14:00,
2013-03-09 16:24:00,57.7,51.9,30.26,SW,218,3.0,4.0,81,0.00,,,0.00,373,Wunderground v.1.15,2013-03-10 00:24:00,
2013-03-09 16:30:00,57.7,51.9,30.26,SSW,196,4.0,4.0,81,0.00,,,0.00,355,Wunderground v.1.15,2013-03-10 00:30:00,
2013-03-09 16:39:00,57.1,52.0,30.27,South,187,4.0,4.0,83,0.00,,,0.00,320,Wunderground v.1.15,2013-03-10 00:39:00,
2013-03-09 16:45:00,57.1,52.0,30.27,SSW,213,3.0,4.0,83,0.00,,,0.00,301,Wunderground v.1.15,2013-03-10 00:45:00,
2013-03-09 16:54:00,57.1,52.0,30.27,SSW,213,2.0,3.0,83,0.00,,,0.00,267,Wunderground v.1.15,2013-03-10 00:54:00,
2013-03-09 17:00:00,57.3,52.2,30.27,SSW,213,0.0,0.0,83,0.00,,,0.00,246,Wunderground v.1.15,2013-03-10 01:00:00,
2013-03-09 17:09:00,57.7,52.6,30.27,SSW,197,0.0,0.0,83,0.00,,,0.00,204,Wunderground v.1.15,2013-03-10 01:09:00,
2013-03-09 17:19:00,57.9,52.4,30.27,South,191,1.0,1.0,82,0.00,,,0.00,162,Wunderground v.1.15,2013-03-10 01:19:00,
2013-03-09 17:25:00,58.0,52.5,30.27,SSW,213,1.0,1.0,82,0.00,,,0.00,139,Wunderground v.1.15,2013-03-10 01:25:00,
2013-03-09 17:34:00,57.7,52.2,30.27,SSW,213,1.0,2.0,82,0.00,,,0.00,98,Wunderground v.1.15,2013-03-10 01:34:00,
2013-03-09 17:40:00,57.4,51.9,30.27,SSW,213,2.0,2.0,82,0.00,,,0.00,79,Wunderground v.1.15,2013-03-10 01:40:00,
2013-03-09 17:49:00,57.9,51.4,30.27,SSW,201,0.0,0.0,79,0.00,,,0.00,46,Wunderground v.1.15,2013-03-10 01:49:00,
2013-03-09 17:55:00,58.3,51.1,30.27,SSW,203,0.0,0.0,77,0.00,,,0.00,30,Wunderground v.1.15,2013-03-10 01:55:00,
2013-03-09 18:04:00,57.9,51.1,30.27,SSW,213,2.0,2.0,78,0.00,,,0.00,7,Wunderground v.1.15,2013-03-10 02:04:00,
2013-03-09 18:10:00,57.1,51.0,30.28,SW,218,3.0,4.0,80,0.00,,,0.00,0,Wunderground v.1.15,2013-03-10 02:10:00,
2013-03-09 18:19:00,56.0,50.6,30.28,SW,231,2.0,2.0,82,0.00,,,0.00,0,Wunderground v.1.15,2013-03-10 02:19:00,
2013-03-09 18:25:00,55.8,50.7,30.28,SW,231,1.0,2.0,83,0.00,,,0.00,0,Wunderground v.1.15,2013-03-10 02:25:00,
2013-03-09 18:34:00,55.1,50.4,30.29,WSW,249,4.0,5.0,84,0.00,,,0.00,0,Wunderground v.1.15,2013-03-10 02:34:00,
2013-03-09 18:44:00,55.0,50.3,30.29,WSW,249,3.0,4.0,84,0.00,,,0.00,0,Wunderground v.1.15,2013-03-10 02:44:00,
2013-03-09 18:49:00,55.0,50.6,30.29,WSW,251,3.0,3.0,85,0.00,,,0.00,0,Wunderground v.1.15,2013-03-10 02:49:00,
2013-03-09 18:55:00,55.1,50.4,30.29,WSW,251,2.0,3.0,84,0.00,,,0.00,0,Wunderground v.1.15,2013-03-10 02:55:00,
2013-03-09 19:05:00,55.2,50.4,30.29,WSW,241,1.0,2.0,84,0.00,,,0.00,0,Wunderground v.1.15,2013-03-10 03:05:00,
2013-03-09 19:15:00,54.9,50.2,30.29,WSW,243,2.0,3.0,84,0.00,,,0.00,0,Wunderground v.1.15,2013-03-10 03:15:00,
2013-03-09 19:24:00,54.7,50.3,30.30,WSW,240,2.0,3.0,85,0.00,,,0.00,0,Wunderground v.1.15,2013-03-10 03:24:00,
2013-03-09 19:34:00,54.4,50.3,30.30,WSW,244,3.0,4.0,86,0.00,,,0.00,0,Wunderground v.1.15,2013-03-10 03:34:00,
2013-03-09 19:40:00,54.1,50.0,30.30,WSW,243,3.0,3.0,86,0.00,,,0.00,0,Wunderground v.1.15,2013-03-10 03:40:00,
2013-03-09 19:49:00,54.2,50.4,30.30,WSW,244,0.0,0.0,87,0.00,,,0.00,0,Wunderground v.1.15,2013-03-10 03:49:00,
2013-03-09 19:55:00,54.0,50.2,30.30,WSW,242,0.0,0.0,87,0.00,,,0.00,0,Wunderground v.1.15,2013-03-10 03:55:00,
2013-03-09 20:05:00,53.4,49.6,30.31,WSW,243,0.0,0.0,87,0.00,,,0.00,0,Wunderground v.1.15,2013-03-10 04:05:00,
2013-03-09 20:14:00,53.3,49.8,30.31,WSW,243,0.0,0.0,88,0.00,,,0.00,0,Wunderground v.1.15,2013-03-10 04:14:00,
2013-03-09 20:24:00,53.3,49.8,30.31,WSW,243,0.0,0.0,88,0.00,,,0.00,0,Wunderground v.1.15,2013-03-10 04:24:00,
2013-03-09 20:30:00,53.3,49.8,30.31,WSW,244,0.0,0.0,88,0.00,,,0.00,0,Wunderground v.1.15,2013-03-10 04:30:00,
2013-03-09 20:40:00,53.3,49.8,30.31,WSW,241,0.0,0.0,88,0.00,,,0.00,0,Wunderground v.1.15,2013-03-10 04:40:00,
2013-03-09 20:50:00,53.5,50.3,30.31,WSW,243,0.0,0.0,89,0.00,,,0.00,0,Wunderground v.1.15,2013-03-10 04:50:00,
2013-03-09 20:55:00,53.4,50.2,30.32,WSW,242,0.0,0.0,89,0.00,,,0.00,0,Wunderground v.1.15,2013-03-10 04:55:00,
2013-03-09 21:05:00,53.1,49.9,30.32,WSW,243,0.0,0.0,89,0.00,,,0.00,0,Wunderground v.1.15,2013-03-10 05:05:00,
2013-03-09 21:09:00,53.1,49.9,30.32,WSW,243,0.0,0.0,89,0.00,,,0.00,0,Wunderground v.1.15,2013-03-10 05:09:00,
2013-03-09 21:14:00,52.8,49.6,30.32,WSW,243,0.0,0.0,89,0.00,,,0.00,0,Wunderground v.1.15,2013-03-10 05:14:00,
2013-03-09 21:19:00,52.7,49.8,30.32,WSW,241,0.0,0.0,90,0.00,,,0.00,0,Wunderground v.1.15,2013-03-10 05:19:00,
2013-03-09 21:24:00,52.5,49.4,30.32,WSW,243,0.0,0.0,89,0.00,,,0.00,0,Wunderground v.1.15,2013-03-10 05:24:00,
2013-03-09 21:29:00,52.3,49.2,30.32,WSW,244,0.0,0.0,89,0.00,,,0.00,0,Wunderground v.1.15,2013-03-10 05:29:00,
2013-03-09 21:34:00,52.1,49.3,30.33,WSW,241,0.0,0.0,90,0.00,,,0.00,0,Wunderground v.1.15,2013-03-10 05:34:00,
2013-03-09 21:40:00,51.8,48.7,30.33,WSW,242,0.0,0.0,89,0.00,,,0.00,0,Wunderground v.1.15,2013-03-10 05:40:00,
2013-03-09 21:49:00,51.4,48.6,30.33,WSW,242,0.0,0.0,90,0.00,,,0.00,0,Wunderground v.1.15,2013-03-10 05:49:00,
2013-03-09 21:59:00,51.0,48.2,30.33,WSW,244,0.0,0.0,90,0.00,,,0.00,0,Wunderground v.1.15,2013-03-10 05:59:00,
2013-03-09 22:05:00,50.9,48.1,30.33,WSW,240,0.0,0.0,90,0.00,,,0.00,0,Wunderground v.1.15,2013-03-10 06:05:00,
2013-03-09 22:14:00,50.6,47.8,30.33,WSW,242,0.0,0.0,90,0.00,,,0.00,0,Wunderground v.1.15,2013-03-10 06:14:00,
2013-03-09 22:20:00,50.4,47.6,30.33,WSW,242,0.0,0.0,90,0.00,,,0.00,0,Wunderground v.1.15,2013-03-10 06:20:00,
2013-03-09 22:29:00,50.0,47.2,30.33,WSW,242,0.0,0.0,90,0.00,,,0.00,0,Wunderground v.1.15,2013-03-10 06:29:00,
2013-03-09 22:34:00,49.8,47.0,30.33,WSW,241,0.0,0.0,90,0.00,,,0.00,0,Wunderground v.1.15,2013-03-10 06:34:00,
2013-03-09 22:44:00,49.9,47.1,30.33,WSW,245,0.0,0.0,90,0.00,,,0.00,0,Wunderground v.1.15,2013-03-10 06:44:00,
2013-03-09 22:50:00,51.0,48.2,30.33,WSW,242,0.0,0.0,90,0.00,,,0.00,0,Wunderground v.1.15,2013-03-10 06:50:00,
2013-03-09 22:59:00,51.1,48.0,30.32,WSW,242,0.0,0.0,89,0.00,,,0.00,0,Wunderground v.1.15,2013-03-10 06:59:00,
2013-03-09 23:09:00,51.3,48.2,30.32,WSW,241,0.0,0.0,89,0.00,,,0.00,0,Wunderground v.1.15,2013-03-10 07:09:00,
2013-03-09 23:14:00,51.3,48.2,30.33,WSW,241,0.0,0.0,89,0.00,,,0.00,0,Wunderground v.1.15,2013-03-10 07:14:00,
2013-03-09 23:24:00,50.7,47.3,30.33,WSW,242,0.0,0.0,88,0.00,,,0.00,0,Wunderground v.1.15,2013-03-10 07:24:00,
2013-03-09 23:30:00,50.6,47.5,30.33,WSW,244,0.0,0.0,89,0.00,,,0.00,0,Wunderground v.1.15,2013-03-10 07:30:00,
2013-03-09 23:39:00,50.1,47.0,30.33,WSW,241,0.0,0.0,89,0.00,,,0.00,0,Wunderground v.1.15,2013-03-10 07:39:00,
2013-03-09 23:44:00,49.9,46.8,30.34,WSW,244,0.0,0.0,89,0.00,,,0.00,0,Wunderground v.1.15,2013-03-10 07:44:00,
2013-03-09 23:54:00,49.3,46.2,30.34,WSW,243,0.0,0.0,89,0.00,,,0.00,0,Wunderground v.1.15,2013-03-10 07:54:00,